Time;durP1;ratioP1;P1;durP2;ratioP2;P2;SDS_P1;SDS_P2;PMS_P1;PMS_P2;Temp;Humidity;BMP_temperature;BMP_pressure;BME280_temperature;BME280_humidity;BME280_pressure;Samples;Min_cycle;Max_cycle;Signal;HPM_P1;HPM_P2
2022/04/02 00:01:43;;;;;;;1.98;0.80;;;17.80;29.40;;;;;;5017510;28;20022;-76
2022/04/02 00:04:09;;;;;;;1.48;0.80;;;17.90;29.50;;;;;;5019990;28;20014;-75
2022/04/02 00:06:35;;;;;;;1.42;0.70;;;17.80;29.50;;;;;;5004417;28;20028;-76
2022/04/02 00:09:03;;;;;;;0.98;0.70;;;17.90;29.50;;;;;;5019182;28;20108;-75
2022/04/02 00:11:29;;;;;;;1.98;0.95;;;17.90;29.60;;;;;;5018592;28;20010;-76
2022/04/02 00:13:55;;;;;;;2.05;0.80;;;17.80;29.60;;;;;;5019078;28;20030;-76
2022/04/02 00:16:23;;;;;;;1.30;0.77;;;17.80;29.60;;;;;;5019748;28;20022;-76
2022/04/02 00:18:49;;;;;;;2.08;0.95;;;17.80;29.60;;;;;;5036572;28;20125;-77
2022/04/02 00:21:15;;;;;;;1.75;0.90;;;17.80;29.60;;;;;;5021050;28;20072;-77
2022/04/02 00:23:46;;;;;;;1.30;0.70;;;17.80;29.70;;;;;;5020660;28;20014;-77
2022/04/02 00:26:13;;;;;;;1.20;0.70;;;17.80;29.80;;;;;;5020137;28;20017;-78
2022/04/02 00:28:39;;;;;;;2.35;0.90;;;17.80;29.80;;;;;;5019702;28;20022;-80
2022/04/02 00:31:07;;;;;;;1.80;0.90;;;17.80;29.80;;;;;;5019786;28;20022;-80
2022/04/02 00:33:34;;;;;;;1.40;0.90;;;17.80;29.80;;;;;;5003461;28;20073;-75
2022/04/02 00:36:00;;;;;;;1.45;1.00;;;17.80;29.80;;;;;;5019475;28;20060;-76
2022/04/02 00:38:26;;;;;;;2.20;0.70;;;17.70;29.80;;;;;;5019276;28;20022;-77
2022/04/02 00:40:52;;;;;;;2.08;1.13;;;17.70;29.90;;;;;;5002321;28;20025;-76
2022/04/02 00:43:24;;;;;;;1.13;0.70;;;17.70;29.90;;;;;;5018542;28;20026;-80
2022/04/02 00:45:51;;;;;;;1.38;0.80;;;17.70;30.00;;;;;;5018144;28;20018;-77
2022/04/02 00:48:18;;;;;;;1.80;0.90;;;17.70;30.00;;;;;;5017288;28;20054;-77
2022/04/02 00:50:45;;;;;;;1.00;0.88;;;17.70;30.00;;;;;;5001992;28;20101;-77
2022/04/02 00:53:11;;;;;;;1.45;0.85;;;17.70;30.00;;;;;;5006687;28;20484;-75
2022/04/02 00:55:37;;;;;;;3.67;1.50;;;17.70;30.00;;;;;;5025147;28;20018;-75
2022/04/02 00:58:07;;;;;;;1.70;0.73;;;17.70;30.10;;;;;;5024247;28;20033;-76
2022/04/02 01:00:34;;;;;;;1.33;0.93;;;17.70;30.70;;;;;;5024729;28;20029;-76
2022/04/02 01:03:00;;;;;;;1.33;0.80;;;17.70;30.10;;;;;;5025460;28;20047;-77
2022/04/02 01:05:25;;;;;;;1.35;0.80;;;17.70;30.10;;;;;;5008019;28;20020;-77
2022/04/02 01:07:52;;;;;;;1.92;1.00;;;17.70;30.20;;;;;;5024956;28;20054;-77
2022/04/02 01:10:19;;;;;;;1.50;0.80;;;17.60;30.20;;;;;;5024612;28;20018;-76
2022/04/02 01:12:45;;;;;;;1.70;0.90;;;17.70;30.30;;;;;;5024321;28;20018;-75
2022/04/02 01:15:11;;;;;;;1.63;0.80;;;17.70;30.20;;;;;;5023267;28;20014;-77
2022/04/02 01:17:40;;;;;;;2.65;0.90;;;17.60;30.20;;;;;;5023904;28;20052;-75
2022/04/02 01:20:08;;;;;;;1.35;0.82;;;17.70;30.30;;;;;;5024350;28;20026;-76
2022/04/02 01:22:34;;;;;;;1.13;0.80;;;17.70;30.30;;;;;;5006668;28;20034;-76
2022/04/02 01:25:00;;;;;;;1.55;0.90;;;17.70;30.30;;;;;;5023988;28;20026;-76
2022/04/02 01:27:26;;;;;;;2.10;1.00;;;17.60;30.40;;;;;;5025838;28;20029;-78
2022/04/02 01:29:52;;;;;;;1.23;0.80;;;17.60;30.40;;;;;;5025340;28;20022;-76
2022/04/02 01:32:21;;;;;;;3.75;0.90;;;17.60;30.40;;;;;;5026592;28;20559;-77
2022/04/02 01:34:49;;;;;;;2.05;1.05;;;17.60;30.40;;;;;;5028039;28;20014;-78
2022/04/02 01:37:19;;;;;;;1.50;0.90;;;17.60;30.50;;;;;;5026349;28;20732;-76
2022/04/02 01:39:47;;;;;;;1.63;0.70;;;17.60;30.50;;;;;;5024988;28;20014;-75
2022/04/02 01:42:14;;;;;;;1.40;1.00;;;17.60;30.50;;;;;;5025994;28;20060;-75
2022/04/02 01:44:41;;;;;;;2.08;0.70;;;17.60;30.60;;;;;;5023963;28;20101;-77
2022/04/02 01:47:07;;;;;;;2.08;1.00;;;17.60;30.60;;;;;;5026326;28;20026;-74
2022/04/02 01:49:33;;;;;;;1.20;0.70;;;17.50;30.60;;;;;;5009452;28;20017;-78
2022/04/02 01:51:59;;;;;;;2.33;0.90;;;17.50;30.60;;;;;;5022924;28;20014;-76
2022/04/02 01:54:28;;;;;;;1.33;0.90;;;17.60;30.80;;;;;;5020293;28;20045;-76
2022/04/02 01:56:54;;;;;;;1.60;0.97;;;17.50;30.70;;;;;;5021466;28;20041;-76
2022/04/02 01:59:22;;;;;;;1.00;0.70;;;17.50;30.80;;;;;;5020829;28;20034;-78
2022/04/02 02:01:48;;;;;;;1.05;0.80;;;17.60;30.90;;;;;;5020800;28;20017;-77
2022/04/02 02:04:14;;;;;;;1.30;0.60;;;17.50;30.80;;;;;;5021286;28;20033;-79
2022/04/02 02:06:41;;;;;;;1.52;0.73;;;17.50;30.80;;;;;;5019873;28;20030;-79
2022/04/02 02:09:08;;;;;;;1.17;0.73;;;17.50;30.70;;;;;;5020351;28;20025;-79
2022/04/02 02:11:36;;;;;;;1.67;0.90;;;17.60;30.90;;;;;;5019630;28;20024;-78
2022/04/02 02:14:02;;;;;;;1.25;0.82;;;17.50;30.90;;;;;;5003221;28;20039;-77
2022/04/02 02:16:27;;;;;;;1.00;0.68;;;17.50;30.90;;;;;;5019581;28;20026;-78
2022/04/02 02:18:55;;;;;;;1.35;0.80;;;17.50;31.00;;;;;;5018734;28;20054;-79
2022/04/02 02:21:21;;;;;;;1.20;0.80;;;17.50;31.00;;;;;;5017541;28;20093;-79
2022/04/02 02:23:48;;;;;;;1.77;0.80;;;17.40;31.00;;;;;;5018178;28;20434;-81
2022/04/02 02:26:14;;;;;;;1.00;0.70;;;17.40;31.00;;;;;;5020086;28;20044;-79
2022/04/02 02:28:41;;;;;;;1.55;0.75;;;17.50;31.10;;;;;;5020437;28;20065;-80
2022/04/02 02:31:07;;;;;;;1.63;0.93;;;17.50;31.10;;;;;;5021591;28;20014;-80
2022/04/02 02:36:18;;;;;;;2.50;0.98;;;17.50;31.10;;;;;;5018297;28;20025;-78
2022/04/02 02:38:45;;;;;;;2.20;0.80;;;17.40;31.10;;;;;;5019013;28;20026;-78
2022/04/02 02:41:12;;;;;;;1.80;0.80;;;17.50;31.30;;;;;;5018840;28;20109;-78
2022/04/02 02:43:38;;;;;;;1.02;0.60;;;17.40;31.20;;;;;;5019768;28;20014;-78
2022/04/02 02:46:05;;;;;;;1.58;0.77;;;17.40;31.20;;;;;;5019081;28;20429;-80
2022/04/02 02:48:31;;;;;;;1.20;0.70;;;17.40;31.20;;;;;;5018791;28;20033;-80
2022/04/02 02:50:58;;;;;;;1.55;0.80;;;17.40;31.30;;;;;;5017901;28;20033;-78
2022/04/02 02:53:24;;;;;;;2.15;0.93;;;17.40;31.30;;;;;;5022424;28;20086;-78
2022/04/02 02:55:51;;;;;;;0.95;0.75;;;17.40;31.30;;;;;;5020552;28;20014;-82
2022/04/02 02:58:16;;;;;;;1.75;0.98;;;17.40;31.30;;;;;;5004093;28;20477;-79
2022/04/02 03:00:42;;;;;;;1.33;0.73;;;17.40;31.40;;;;;;5019555;28;20026;-76
2022/04/02 03:03:09;;;;;;;1.23;0.80;;;17.40;31.30;;;;;;5002231;28;20397;-79
2022/04/02 03:05:35;;;;;;;1.70;0.85;;;17.40;31.80;;;;;;5001912;28;20014;-78
2022/04/02 03:08:01;;;;;;;1.35;0.70;;;17.40;31.40;;;;;;5018579;28;20029;-78
2022/04/02 03:10:28;;;;;;;2.30;0.95;;;17.40;31.30;;;;;;5017711;28;20042;-78
2022/04/02 03:12:55;;;;;;;1.77;0.90;;;17.40;31.60;;;;;;5018899;28;20137;-76
2022/04/02 03:15:22;;;;;;;1.35;0.70;;;17.30;31.40;;;;;;5018765;28;20101;-77
2022/04/02 03:17:49;;;;;;;0.88;0.60;;;17.30;31.40;;;;;;5002172;28;20070;-79
2022/04/02 03:20:17;;;;;;;1.30;0.80;;;17.40;31.40;;;;;;5002947;28;20028;-78
2022/04/02 03:22:43;;;;;;;1.48;0.70;;;17.40;31.40;;;;;;5019160;28;20048;-80
2022/04/02 03:25:11;;;;;;;1.30;0.70;;;17.30;31.50;;;;;;5003750;28;20018;-77
2022/04/02 03:27:40;;;;;;;1.65;0.63;;;17.30;31.50;;;;;;5018188;28;20055;-79
2022/04/02 03:30:09;;;;;;;2.20;0.77;;;17.30;31.50;;;;;;5018809;28;20022;-77
2022/04/02 03:32:34;;;;;;;1.42;0.80;;;17.30;31.50;;;;;;5018507;28;20026;-79
2022/04/02 03:35:01;;;;;;;3.58;0.60;;;17.30;31.50;;;;;;5001887;28;20018;-78
2022/04/02 03:37:28;;;;;;;2.03;0.98;;;17.30;31.50;;;;;;5018054;28;20113;-80
2022/04/02 03:39:54;;;;;;;1.00;0.80;;;17.30;31.60;;;;;;5017620;28;20029;-80
2022/04/02 03:42:20;;;;;;;1.65;0.80;;;17.30;31.60;;;;;;5001605;28;20473;-77
2022/04/02 03:44:47;;;;;;;1.45;0.70;;;17.30;31.60;;;;;;5018552;28;20025;-80
2022/04/02 03:47:15;;;;;;;2.35;1.10;;;17.20;31.60;;;;;;5017001;28;20099;-78
2022/04/02 03:49:45;;;;;;;1.40;0.77;;;17.20;31.70;;;;;;5033105;28;20022;-77
2022/04/02 03:52:11;;;;;;;1.73;0.80;;;17.20;31.70;;;;;;5000296;28;20738;-77
2022/04/02 03:54:39;;;;;;;1.45;0.93;;;17.20;31.60;;;;;;5016815;28;20030;-76
2022/04/02 03:57:12;;;;;;;2.35;1.00;;;17.30;31.60;;;;;;5016779;28;20089;-77
2022/04/02 03:59:37;;;;;;;1.98;0.88;;;17.30;31.60;;;;;;5017083;28;20029;-77
2022/04/02 04:02:05;;;;;;;1.65;0.80;;;17.30;31.60;;;;;;5016883;28;20088;-76
2022/04/02 04:04:31;;;;;;;1.52;0.68;;;17.20;32.20;;;;;;4999777;28;20022;-80
2022/04/02 04:06:57;;;;;;;1.63;0.75;;;17.20;31.70;;;;;;5016290;28;20073;-76
2022/04/02 04:09:24;;;;;;;1.95;0.80;;;17.20;31.80;;;;;;5016583;28;20073;-76
2022/04/02 04:11:50;;;;;;;1.98;0.80;;;17.20;31.70;;;;;;5017997;28;20529;-76
2022/04/02 04:14:16;;;;;;;1.13;0.70;;;17.20;31.70;;;;;;5016204;28;20049;-77
2022/04/02 04:16:45;;;;;;;1.45;0.95;;;17.20;31.80;;;;;;5015717;28;20066;-76
2022/04/02 04:19:11;;;;;;;1.45;0.80;;;17.20;31.80;;;;;;5016185;28;20076;-77
2022/04/02 04:21:37;;;;;;;1.75;1.00;;;17.20;31.80;;;;;;5018747;28;20022;-76
2022/04/02 04:24:08;;;;;;;1.55;0.80;;;17.20;31.80;;;;;;5017045;28;20089;-76
2022/04/02 04:26:33;;;;;;;1.42;0.60;;;17.20;31.70;;;;;;5017231;28;20026;-79
2022/04/02 04:29:00;;;;;;;2.35;0.95;;;17.20;31.70;;;;;;5020559;28;20022;-76
2022/04/02 04:31:26;;;;;;;1.80;0.68;;;17.30;31.70;;;;;;5019656;28;20025;-76
2022/04/02 04:33:52;;;;;;;1.70;0.90;;;17.20;31.70;;;;;;5016156;28;20022;-79
2022/04/02 04:36:18;;;;;;;1.65;0.70;;;17.20;31.80;;;;;;5017087;28;20025;-81
2022/04/02 04:38:45;;;;;;;1.88;1.02;;;17.10;31.80;;;;;;5016137;28;20014;-77
2022/04/02 04:41:13;;;;;;;1.60;0.80;;;17.10;31.80;;;;;;5015995;28;20014;-78
2022/04/02 04:43:41;;;;;;;2.42;0.85;;;17.10;31.90;;;;;;5016031;28;20022;-77
2022/04/02 04:46:06;;;;;;;2.17;0.77;;;17.20;31.80;;;;;;5015400;28;20461;-76
2022/04/02 04:48:32;;;;;;;2.08;0.80;;;17.20;31.80;;;;;;5000751;28;20025;-75
2022/04/02 04:50:58;;;;;;;1.50;0.88;;;17.20;31.80;;;;;;5019921;28;20026;-76
2022/04/02 04:53:25;;;;;;;2.92;1.35;;;17.10;31.80;;;;;;5002307;28;20026;-75
2022/04/02 04:55:51;;;;;;;1.45;0.80;;;17.10;31.80;;;;;;5019943;28;20017;-79
2022/04/02 04:58:18;;;;;;;1.10;0.63;;;17.10;31.70;;;;;;5021166;28;20021;-78
2022/04/02 05:00:45;;;;;;;1.50;0.65;;;17.20;31.70;;;;;;5022017;28;20017;-76
2022/04/02 05:03:12;;;;;;;1.60;0.90;;;17.20;31.60;;;;;;5020975;28;20018;-75
2022/04/02 05:05:38;;;;;;;1.25;0.50;;;17.20;31.70;;;;;;5020537;28;20018;-75
2022/04/02 05:08:07;;;;;;;1.65;0.70;;;17.10;31.70;;;;;;5021885;28;20036;-77
2022/04/02 05:10:34;;;;;;;1.45;0.70;;;17.10;31.70;;;;;;5022279;28;20485;-79
2022/04/02 05:13:01;;;;;;;1.25;0.80;;;17.10;31.70;;;;;;5020659;28;20025;-75
2022/04/02 05:15:28;;;;;;;1.10;0.70;;;17.10;31.70;;;;;;5019895;28;20018;-75
2022/04/02 05:17:54;;;;;;;2.92;0.77;;;17.10;31.70;;;;;;5004151;28;20412;-79
2022/04/02 05:20:20;;;;;;;1.95;0.90;;;17.10;31.60;;;;;;5021210;28;20026;-78
2022/04/02 05:22:48;;;;;;;2.40;0.80;;;17.10;31.60;;;;;;5021752;28;20472;-77
2022/04/02 05:25:15;;;;;;;1.98;0.70;;;17.10;31.50;;;;;;5023084;28;20026;-80
2022/04/02 05:27:43;;;;;;;1.25;0.77;;;17.10;31.50;;;;;;5037249;28;20037;-79
2022/04/02 05:30:11;;;;;;;1.55;0.82;;;17.10;31.60;;;;;;5020608;28;20014;-81
2022/04/02 05:32:38;;;;;;;2.10;0.70;;;17.10;31.60;;;;;;5021292;28;20021;-79
2022/04/02 05:35:05;;;;;;;2.60;0.90;;;17.10;31.50;;;;;;5003764;28;20020;-79
2022/04/02 05:37:31;;;;;;;1.13;0.70;;;17.10;31.30;;;;;;5019756;28;20042;-76
2022/04/02 05:39:59;;;;;;;1.67;0.80;;;17.10;31.50;;;;;;5020187;28;20020;-76
2022/04/02 05:42:26;;;;;;;1.67;0.65;;;17.10;31.20;;;;;;5035488;28;20037;-77
2022/04/02 05:44:53;;;;;;;1.27;0.75;;;17.10;31.20;;;;;;5019904;28;20110;-76
2022/04/02 05:47:19;;;;;;;2.35;0.70;;;17.10;31.20;;;;;;5019512;28;20556;-76
2022/04/02 05:49:47;;;;;;;1.30;0.70;;;17.10;31.30;;;;;;5020040;28;20045;-79
2022/04/02 05:52:13;;;;;;;2.85;0.85;;;17.10;31.30;;;;;;5018732;28;20532;-79
2022/04/02 05:54:39;;;;;;;2.13;0.70;;;17.10;31.20;;;;;;5018904;28;20045;-76
2022/04/02 05:57:05;;;;;;;1.33;0.70;;;17.20;31.20;;;;;;5019137;28;20018;-76
2022/04/02 05:59:33;;;;;;;1.20;0.60;;;17.20;31.00;;;;;;5018149;28;20018;-79
2022/04/02 06:01:59;;;;;;;0.98;0.70;;;17.20;31.40;;;;;;5019029;28;20473;-78
2022/04/02 06:04:28;;;;;;;0.93;0.70;;;17.10;31.10;;;;;;5021395;28;20089;-77
2022/04/02 06:06:54;;;;;;;1.00;0.60;;;17.10;31.20;;;;;;5019863;28;20029;-76
2022/04/02 06:09:20;;;;;;;1.23;0.77;;;17.10;31.00;;;;;;5003992;28;20125;-78
2022/04/02 06:11:46;;;;;;;1.75;0.70;;;17.10;31.00;;;;;;5021796;28;20033;-78
2022/04/02 06:14:13;;;;;;;2.10;0.65;;;17.10;31.00;;;;;;5021309;28;20026;-79
2022/04/02 06:16:39;;;;;;;1.13;0.75;;;17.20;30.80;;;;;;5019930;28;20014;-79
2022/04/02 06:19:06;;;;;;;1.25;0.70;;;17.20;30.80;;;;;;5019800;28;20412;-78
2022/04/02 06:21:33;;;;;;;1.50;0.65;;;17.20;30.60;;;;;;5020310;28;20038;-76
2022/04/02 06:24:04;;;;;;;1.40;0.60;;;17.20;30.60;;;;;;5004076;28;20088;-76
2022/04/02 06:26:29;;;;;;;0.82;0.70;;;17.20;30.50;;;;;;5020547;28;20040;-79
2022/04/02 06:28:55;;;;;;;2.08;0.75;;;17.30;30.50;;;;;;5019769;28;20022;-76
2022/04/02 06:31:24;;;;;;;0.98;0.70;;;17.30;30.30;;;;;;5020241;28;20026;-76
2022/04/02 06:33:50;;;;;;;2.03;0.70;;;17.30;30.40;;;;;;5020102;28;20470;-78
2022/04/02 06:36:19;;;;;;;1.48;0.70;;;17.30;30.40;;;;;;5019879;28;20026;-76
2022/04/02 06:38:45;;;;;;;2.50;0.80;;;17.40;30.20;;;;;;5003862;28;20018;-77
2022/04/02 06:41:11;;;;;;;1.98;0.93;;;17.40;30.10;;;;;;5020245;28;20542;-77
2022/04/02 06:43:37;;;;;;;2.42;0.82;;;17.40;30.00;;;;;;5002637;28;20014;-77
2022/04/02 06:46:03;;;;;;;1.50;0.80;;;17.50;30.00;;;;;;5019395;28;20155;-77
2022/04/02 06:48:30;;;;;;;1.52;0.60;;;17.60;29.80;;;;;;5019949;28;20036;-76
2022/04/02 06:50:56;;;;;;;1.42;0.60;;;17.60;29.70;;;;;;5018941;28;20536;-76
2022/04/02 06:53:21;;;;;;;1.50;0.63;;;17.60;29.70;;;;;;5020692;28;20026;-77
2022/04/02 06:55:48;;;;;;;2.30;0.90;;;17.70;29.60;;;;;;5021611;28;20449;-79
2022/04/02 06:58:34;;;;;;;1.15;0.60;;;17.70;29.50;;;;;;5019426;28;20026;-80
2022/04/02 07:01:00;;;;;;;2.15;0.80;;;17.80;29.40;;;;;;5018550;28;20025;-79
2022/04/02 07:03:26;;;;;;;2.28;0.60;;;17.80;29.30;;;;;;5018467;28;20017;-76
2022/04/02 07:05:52;;;;;;;0.93;0.60;;;17.90;29.30;;;;;;5019514;28;20048;-76
2022/04/02 07:08:18;;;;;;;1.55;0.60;;;17.90;29.10;;;;;;5019577;28;20018;-76
2022/04/02 07:10:45;;;;;;;2.45;0.70;;;18.00;29.00;;;;;;5018228;28;20022;-79
2022/04/02 07:13:15;;;;;;;2.65;1.00;;;18.10;29.00;;;;;;5016988;28;20021;-80
2022/04/02 07:15:41;;;;;;;2.83;1.10;;;18.20;28.70;;;;;;5017271;28;20044;-76
2022/04/02 07:18:08;;;;;;;1.00;0.77;;;18.30;28.60;;;;;;5016936;28;20468;-76
2022/04/02 07:20:35;;;;;;;2.08;0.70;;;18.50;28.50;;;;;;5017428;28;20493;-76
2022/04/02 07:23:02;;;;;;;1.13;0.70;;;18.60;28.40;;;;;;5017355;28;20060;-76
2022/04/02 07:25:32;;;;;;;3.17;0.73;;;18.70;28.40;;;;;;5017238;28;20485;-80
2022/04/02 07:27:59;;;;;;;1.17;0.70;;;18.70;28.40;;;;;;5016376;28;20544;-79
2022/04/02 07:30:27;;;;;;;1.95;0.70;;;18.70;28.30;;;;;;5018025;28;20014;-77
2022/04/02 07:32:53;;;;;;;1.40;0.77;;;18.70;28.30;;;;;;5033074;28;20029;-76
2022/04/02 07:35:20;;;;;;;1.60;0.80;;;18.80;28.10;;;;;;5018062;28;20048;-77
2022/04/02 07:38:02;;;;;;;1.13;0.68;;;18.90;28.00;;;;;;5018165;28;20084;-77
2022/04/02 07:40:37;;;;;;;1.38;0.70;;;19.00;28.30;;;;;;5016890;28;20543;-76
2022/04/02 07:43:16;;;;;;;2.47;0.70;;;19.10;28.20;;;;;;5016965;28;20030;-77
2022/04/02 07:45:43;;;;;;;1.33;0.68;;;19.20;28.00;;;;;;5017774;28;20076;-79
2022/04/02 07:48:10;;;;;;;0.90;0.52;;;19.30;27.90;;;;;;5000155;28;20062;-81
2022/04/02 07:50:40;;;;;;;1.05;0.50;;;19.40;27.80;;;;;;5000696;28;20014;-76
2022/04/02 07:53:06;;;;;;;1.33;0.70;;;19.40;27.70;;;;;;5017741;28;20018;-76
2022/04/02 07:55:32;;;;;;;1.98;0.80;;;19.50;27.70;;;;;;5016597;28;20021;-77
2022/04/02 07:58:02;;;;;;;1.33;0.68;;;19.50;27.60;;;;;;5017657;28;20026;-76
2022/04/02 08:00:28;;;;;;;;;;;19.60;27.60;;;;;;5000497;28;20018;-77
2022/04/02 08:02:54;;;;;;;1.02;0.50;;;19.60;27.60;;;;;;5017423;28;19902;-76
2022/04/02 08:05:21;;;;;;;1.35;0.70;;;19.70;27.40;;;;;;5000123;28;20109;-76
2022/04/02 08:07:54;;;;;;;1.40;0.70;;;19.80;27.40;;;;;;5016587;28;20050;-77
2022/04/02 08:10:23;;;;;;;1.40;0.70;;;19.90;27.30;;;;;;5016072;28;20029;-76
2022/04/02 08:12:48;;;;;;;0.98;0.60;;;20.00;27.20;;;;;;5015787;28;20085;-76
2022/04/02 08:15:18;;;;;;;2.92;0.90;;;20.10;27.10;;;;;;4999421;28;20049;-79
2022/04/02 08:17:45;;;;;;;;;;;20.20;27.00;;;;;;5016353;28;20084;-77
2022/04/02 08:20:11;;;;;;;0.80;0.68;;;20.20;26.90;;;;;;5017679;28;19989;-77
2022/04/02 08:22:37;;;;;;;0.68;0.57;;;20.30;26.70;;;;;;5017982;28;20022;-79
2022/04/02 08:25:03;;;;;;;1.35;0.65;;;20.40;26.60;;;;;;5003369;28;20531;-77
2022/04/02 08:27:35;;;;;;;1.55;0.70;;;20.50;26.50;;;;;;5019772;28;20026;-77
2022/04/02 08:30:10;;;;;;;1.55;0.77;;;20.60;26.40;;;;;;5021256;28;20033;-77
2022/04/02 08:33:01;;;;;;;1.30;0.70;;;20.70;26.30;;;;;;5022015;28;20010;-76
2022/04/02 08:35:33;;;;;;;3.47;0.70;;;20.70;26.20;;;;;;5020616;28;20085;-76
2022/04/02 08:38:10;;;;;;;0.75;0.68;;;20.80;26.20;;;;;;5020904;28;20029;-76
2022/04/02 08:40:36;;;;;;;1.33;0.50;;;20.80;26.10;;;;;;5020515;28;20357;-79
2022/04/02 08:43:21;;;;;;;0.95;0.63;;;20.80;26.10;;;;;;5020317;28;20033;-76
2022/04/02 08:46:02;;;;;;;1.30;0.65;;;20.90;26.10;;;;;;5019342;28;20014;-76
2022/04/02 08:48:28;;;;;;;1.95;1.02;;;20.90;26.00;;;;;;5020137;28;20085;-78
2022/04/02 08:50:56;;;;;;;1.00;0.60;;;21.00;25.90;;;;;;5021121;28;20103;-77
2022/04/02 08:53:50;;;;;;;1.02;0.60;;;21.00;25.80;;;;;;5021026;28;20026;-80
2022/04/02 08:56:25;;;;;;;2.13;0.63;;;21.10;25.70;;;;;;5002994;28;20025;-79
2022/04/02 08:59:11;;;;;;;3.17;0.70;;;21.10;25.70;;;;;;5020079;28;20030;-76
2022/04/02 09:01:39;;;;;;;0.95;0.70;;;21.10;25.50;;;;;;5020571;28;20370;-77
2022/04/02 09:04:43;;;;;;;1.30;0.90;;;21.20;25.50;;;;;;5021238;28;20014;-80
2022/04/02 09:07:40;;;;;;;1.33;0.70;;;21.30;25.50;;;;;;5019406;28;20033;-77
2022/04/02 09:10:43;;;;;;;1.08;0.80;;;21.30;25.40;;;;;;5020584;28;20021;-80
2022/04/02 09:13:09;;;;;;;1.00;0.70;;;21.40;25.20;;;;;;5020158;28;20026;-77
2022/04/02 09:15:46;;;;;;;1.10;0.70;;;21.40;25.10;;;;;;5018630;28;20014;-75
2022/04/02 09:18:45;;;;;;;1.30;0.60;;;21.40;25.10;;;;;;5020335;28;20072;-77
2022/04/02 09:21:29;;;;;;;1.00;0.70;;;21.50;24.90;;;;;;5021731;28;20026;-76
2022/04/02 09:24:10;;;;;;;1.40;0.75;;;21.50;24.80;;;;;;5019891;28;20037;-76
2022/04/02 09:27:15;;;;;;;1.58;0.80;;;21.50;24.80;;;;;;5021858;28;20092;-75
2022/04/02 09:30:02;;;;;;;1.50;0.75;;;21.50;24.70;;;;;;5023904;28;20018;-76
2022/04/02 09:33:06;;;;;;;1.10;0.70;;;21.50;24.70;;;;;;5023051;28;20028;-75
2022/04/02 09:35:47;;;;;;;0.85;0.60;;;21.50;24.60;;;;;;5020553;28;20029;-75
2022/04/02 09:38:31;;;;;;;1.30;0.75;;;21.50;24.70;;;;;;5020802;28;20100;-76
2022/04/02 09:41:18;;;;;;;1.27;0.73;;;21.50;24.60;;;;;;5020843;28;20026;-76
2022/04/02 09:44:13;;;;;;;1.83;0.80;;;21.40;24.50;;;;;;5021250;28;20029;-76
2022/04/02 09:46:53;;;;;;;1.42;0.90;;;21.40;24.50;;;;;;5014902;28;20085;-75
2022/04/02 09:49:42;;;;;;;1.05;0.68;;;21.20;24.70;;;;;;5019616;28;20097;-76
2022/04/02 09:52:09;;;;;;;1.83;0.70;;;21.10;24.50;;;;;;5011699;28;20076;-74
2022/04/02 09:54:47;;;;;;;1.00;0.60;;;21.10;24.70;;;;;;5001981;28;20038;-76
2022/04/02 09:57:58;;;;;;;2.10;0.70;;;20.90;24.70;;;;;;5019586;28;20036;-76
2022/04/02 10:00:25;;;;;;;1.45;0.70;;;20.80;24.90;;;;;;5019019;28;20141;-76
2022/04/02 10:03:00;;;;;;;1.00;0.60;;;20.70;24.80;;;;;;5017858;28;20105;-77
2022/04/02 10:05:48;;;;;;;1.13;0.73;;;20.60;25.00;;;;;;5016655;28;20025;-75
2022/04/02 10:08:38;;;;;;;2.40;1.55;;;20.60;25.00;;;;;;4997450;28;20119;-76
2022/04/02 10:11:07;;;;;;;1.73;0.82;;;20.60;25.00;;;;;;5018297;28;20033;-75
2022/04/02 10:13:35;;;;;;;1.58;1.00;;;20.60;25.00;;;;;;5017405;28;20014;-75
2022/04/02 10:16:05;;;;;;;1.10;0.60;;;20.60;25.00;;;;;;5017139;28;20034;-75
2022/04/02 10:18:35;;;;;;;1.38;0.70;;;20.60;24.80;;;;;;5017561;28;20038;-76
2022/04/02 10:21:05;;;;;;;0.90;0.60;;;20.70;24.70;;;;;;5018390;28;20018;-76
2022/04/02 10:23:33;;;;;;;1.13;0.70;;;20.70;24.50;;;;;;5018673;28;20030;-75
2022/04/02 10:26:18;;;;;;;1.70;0.80;;;20.70;24.40;;;;;;5017113;28;20017;-76
2022/04/02 10:28:49;;;;;;;1.65;0.82;;;20.80;24.40;;;;;;5017433;28;20113;-78
2022/04/02 10:31:18;;;;;;;;;;;20.80;24.20;;;;;;5018602;28;20040;-76
2022/04/02 10:33:44;;;;;;;0.95;0.68;;;20.80;24.30;;;;;;5019459;28;19902;-75
2022/04/02 10:36:13;;;;;;;2.60;0.77;;;20.70;24.20;;;;;;5018966;28;20002;-77
2022/04/02 10:38:40;;;;;;;1.20;0.70;;;20.70;24.20;;;;;;5017967;28;20017;-76
2022/04/02 10:41:11;;;;;;;2.85;0.90;;;20.50;24.20;;;;;;5018075;28;20029;-77
2022/04/02 10:44:00;;;;;;;1.23;0.70;;;20.50;24.30;;;;;;5018311;28;20125;-76
2022/04/02 10:46:26;;;;;;;1.40;0.73;;;20.40;24.30;;;;;;5001727;28;20024;-76
2022/04/02 10:49:07;;;;;;;1.40;0.80;;;20.50;24.40;;;;;;5019806;28;20030;-76
2022/04/02 10:51:35;;;;;;;2.05;0.80;;;20.40;24.40;;;;;;5020657;28;20029;-77
2022/04/02 10:54:06;;;;;;;1.75;0.70;;;20.30;24.50;;;;;;5021048;28;20018;-78
2022/04/02 10:56:33;;;;;;;;;;;20.30;24.40;;;;;;5021309;28;20010;-76
2022/04/02 10:58:59;;;;;;;1.10;0.70;;;20.20;24.40;;;;;;5004623;28;19923;-77
2022/04/02 11:01:25;;;;;;;1.45;0.80;;;20.20;24.40;;;;;;5021123;28;20026;-77
2022/04/02 11:03:55;;;;;;;1.33;0.70;;;20.10;24.50;;;;;;5020825;28;20057;-76
2022/04/02 11:06:39;;;;;;;;;;;20.00;24.60;;;;;;5019829;28;20018;-76
2022/04/02 11:09:29;;;;;;;1.95;0.63;;;20.00;24.60;;;;;;5018078;28;19909;-77
2022/04/02 11:11:57;;;;;;;0.93;0.77;;;19.90;24.70;;;;;;5017022;28;20014;-76
2022/04/02 11:14:23;;;;;;;1.55;0.70;;;20.00;24.70;;;;;;5000833;28;20105;-77
2022/04/02 11:16:50;;;;;;;2.28;0.70;;;19.90;24.80;;;;;;5017210;28;20018;-76
2022/04/02 11:22:08;;;;;;;2.67;0.77;;;19.90;24.80;;;;;;5022359;28;20044;-77
2022/04/02 11:24:53;;;;;;;0.93;0.65;;;19.80;25.30;;;;;;5020436;28;20033;-75
2022/04/02 11:27:18;;;;;;;2.22;0.80;;;19.80;24.80;;;;;;5004796;28;20042;-74
2022/04/02 11:29:48;;;;;;;0.75;0.70;;;19.80;24.90;;;;;;5020830;28;20021;-79
2022/04/02 11:32:14;;;;;;;;;;;19.70;25.00;;;;;;5021518;28;20014;-74
2022/04/02 11:34:40;;;;;;;1.65;0.70;;;19.70;25.10;;;;;;5019788;28;19940;-76
2022/04/02 11:37:07;;;;;;;1.55;1.02;;;19.60;25.10;;;;;;5019640;28;20381;-78
2022/04/02 11:40:06;;;;;;;2.08;0.90;;;19.60;25.10;;;;;;5018873;28;20040;-76
2022/04/02 11:42:35;;;;;;;1.20;0.68;;;19.50;25.50;;;;;;5021057;28;20026;-77
2022/04/02 11:45:05;;;;;;;2.05;0.90;;;19.50;25.30;;;;;;5004601;28;20054;-76
2022/04/02 11:47:32;;;;;;;1.73;0.70;;;19.40;25.40;;;;;;5022029;28;20588;-77
2022/04/02 11:50:06;;;;;;;2.05;0.80;;;19.40;25.20;;;;;;5022050;28;20006;-76
2022/04/02 11:52:52;;;;;;;0.90;0.80;;;19.40;24.90;;;;;;5007542;28;20026;-76
2022/04/02 11:55:18;;;;;;;1.55;0.85;;;19.40;25.20;;;;;;5023235;28;20022;-77
2022/04/02 11:58:07;;;;;;;2.35;0.82;;;19.40;25.20;;;;;;5022558;28;20018;-76
2022/04/02 12:00:37;;;;;;;1.10;0.80;;;19.40;24.80;;;;;;5024999;28;20136;-77
2022/04/02 12:03:06;;;;;;;1.33;0.95;;;19.40;25.30;;;;;;5025417;28;20018;-79
2022/04/02 12:05:37;;;;;;;1.58;0.98;;;19.30;24.80;;;;;;5026098;28;20481;-76
2022/04/02 12:08:04;;;;;;;1.48;0.90;;;19.30;25.20;;;;;;5026674;28;20026;-76
2022/04/02 12:10:32;;;;;;;1.75;0.80;;;19.30;24.70;;;;;;5027052;28;20030;-81
2022/04/02 12:12:58;;;;;;;1.70;0.90;;;19.30;24.60;;;;;;5029809;28;20021;-77
2022/04/02 12:15:24;;;;;;;1.20;0.85;;;19.30;24.50;;;;;;5012153;28;20033;-81
2022/04/02 12:17:53;;;;;;;2.97;0.82;;;19.20;24.30;;;;;;5028708;28;20129;-78
2022/04/02 12:20:32;;;;;;;2.53;1.00;;;19.20;24.30;;;;;;5026342;28;20030;-79
2022/04/02 12:23:24;;;;;;;2.50;0.93;;;19.20;24.50;;;;;;5025089;28;20022;-77
2022/04/02 12:25:54;;;;;;;1.77;1.00;;;19.20;24.40;;;;;;5023711;28;20052;-76
2022/04/02 12:28:20;;;;;;;1.17;0.80;;;19.10;24.30;;;;;;5008560;28;20029;-77
2022/04/02 12:30:51;;;;;;;1.85;0.95;;;19.20;24.30;;;;;;5026543;28;20010;-76
2022/04/02 12:33:21;;;;;;;1.20;0.70;;;19.10;24.30;;;;;;5024722;28;20018;-77
2022/04/02 12:35:56;;;;;;;;;;;19.10;24.30;;;;;;5024435;28;20013;-75
2022/04/02 12:38:24;;;;;;;1.70;1.05;;;19.00;24.10;;;;;;5024778;28;19948;-76
2022/04/02 12:40:52;;;;;;;1.73;0.80;;;19.00;24.30;;;;;;5027284;28;20539;-77
2022/04/02 12:43:32;;;;;;;1.17;0.82;;;19.00;24.40;;;;;;5024398;28;20105;-77
2022/04/02 12:45:58;;;;;;;;;;;19.00;24.30;;;;;;5008312;28;20048;-75
2022/04/02 12:48:26;;;;;;;1.35;0.80;;;19.00;24.10;;;;;;5025328;28;19909;-77
2022/04/02 12:50:54;;;;;;;1.60;0.90;;;19.00;24.10;;;;;;5026219;28;20021;-77
2022/04/02 12:53:33;;;;;;;0.93;0.70;;;19.00;24.10;;;;;;5025652;28;20018;-77
2022/04/02 12:56:02;;;;;;;1.50;0.80;;;19.00;24.10;;;;;;5025302;28;20006;-75
2022/04/02 12:58:36;;;;;;;2.33;1.10;;;19.00;24.20;;;;;;5026228;28;20026;-77
2022/04/02 13:01:25;;;;;;;1.17;0.70;;;19.00;24.20;;;;;;5026192;28;20034;-76
2022/04/02 13:03:57;;;;;;;2.17;1.00;;;19.00;24.20;;;;;;5026370;28;20026;-78
2022/04/02 13:06:24;;;;;;;1.55;0.80;;;19.00;24.10;;;;;;5026494;28;20119;-77
2022/04/02 13:08:58;;;;;;;1.25;0.90;;;19.00;24.10;;;;;;5023032;28;20030;-76